Time;durP1;ratioP1;P1;durP2;ratioP2;P2;SDS_P1;SDS_P2;PMS_P1;PMS_P2;Temp;Humidity;BMP_temperature;BMP_pressure;BME280_temperature;BME280_humidity;BME280_pressure;Samples;Min_cycle;Max_cycle;Signal;HPM_P1;HPM_P2
2023/06/29 00:00:16;;;;;;;4.00;3.63;;;15.80;99.90;;;;;;5032648;28;21345;-73
2023/06/29 00:02:43;;;;;;;2.67;2.47;;;15.80;99.90;;;;;;5032700;28;20461;-73
2023/06/29 00:05:11;;;;;;;3.43;3.00;;;15.80;99.90;;;;;;5032128;28;20951;-73
2023/06/29 00:07:37;;;;;;;3.53;2.70;;;15.70;99.90;;;;;;5032373;28;20526;-73
2023/06/29 00:10:05;;;;;;;3.03;2.83;;;15.70;99.90;;;;;;5032222;28;20472;-73
2023/06/29 00:12:32;;;;;;;3.87;3.00;;;15.70;99.90;;;;;;5032405;28;20981;-73
2023/06/29 00:14:58;;;;;;;3.70;3.13;;;15.60;99.90;;;;;;5031938;28;20468;-73
2023/06/29 00:17:26;;;;;;;3.53;3.23;;;15.60;99.90;;;;;;5032239;28;20483;-72
2023/06/29 00:19:53;;;;;;;3.40;3.07;;;15.60;99.90;;;;;;5032696;28;20460;-73
2023/06/29 00:22:20;;;;;;;3.00;2.80;;;15.50;99.90;;;;;;5032231;28;20842;-72
2023/06/29 00:24:52;;;;;;;3.30;3.00;;;15.60;99.90;;;;;;5032333;28;20469;-73
2023/06/29 00:27:18;;;;;;;3.10;2.80;;;15.50;99.90;;;;;;5031875;28;20476;-73
2023/06/29 00:29:45;;;;;;;3.60;2.80;;;15.50;99.90;;;;;;5039844;28;20460;-73
2023/06/29 00:32:12;;;;;;;3.37;3.07;;;15.50;99.90;;;;;;5051552;28;20475;-73
2023/06/29 00:34:40;;;;;;;3.90;3.10;;;15.50;99.90;;;;;;5051905;28;20494;-73
2023/06/29 00:37:07;;;;;;;3.00;2.80;;;15.40;99.90;;;;;;5051094;28;20491;-73
2023/06/29 00:39:34;;;;;;;2.77;2.57;;;15.40;99.90;;;;;;5052121;28;20460;-73
2023/06/29 00:42:01;;;;;;;4.00;3.23;;;15.40;99.90;;;;;;5051433;28;20832;-72
2023/06/29 00:44:28;;;;;;;3.33;3.03;;;15.40;99.90;;;;;;5050864;28;20455;-73
2023/06/29 00:46:55;;;;;;;3.40;3.10;;;15.30;99.90;;;;;;5050955;28;20483;-73
2023/06/29 00:49:22;;;;;;;3.63;3.00;;;15.30;99.90;;;;;;5051628;28;20838;-73
2023/06/29 00:51:52;;;;;;;3.30;3.10;;;15.30;99.90;;;;;;5051515;28;20482;-72
2023/06/29 00:54:19;;;;;;;3.20;2.93;;;15.30;99.90;;;;;;5051401;28;20455;-73
2023/06/29 00:56:46;;;;;;;3.33;3.03;;;15.20;99.90;;;;;;5050378;28;20486;-73
2023/06/29 00:59:13;;;;;;;3.30;2.80;;;15.20;99.90;;;;;;5051322;28;20491;-73
2023/06/29 01:01:41;;;;;;;3.40;3.13;;;15.20;99.90;;;;;;5051368;28;20451;-73
2023/06/29 01:04:08;;;;;;;4.53;3.10;;;15.20;99.90;;;;;;5050943;28;20475;-73
2023/06/29 01:06:44;;;;;;;3.30;3.00;;;15.10;99.90;;;;;;5050768;28;20470;-73
2023/06/29 01:09:13;;;;;;;3.27;2.97;;;15.10;99.90;;;;;;5050917;28;20462;-73
2023/06/29 01:11:40;;;;;;;3.50;3.10;;;15.10;99.90;;;;;;5051174;28;20479;-73
2023/06/29 01:14:11;;;;;;;3.60;3.00;;;15.10;99.90;;;;;;5050685;28;20458;-72
2023/06/29 01:16:39;;;;;;;3.70;2.93;;;15.10;99.90;;;;;;5050638;28;20460;-73
2023/06/29 01:19:08;;;;;;;4.20;3.47;;;15.00;99.90;;;;;;5040776;28;20471;-73
2023/06/29 01:21:48;;;;;;;3.40;3.10;;;15.10;99.90;;;;;;5031185;28;20499;-72
2023/06/29 01:24:19;;;;;;;3.10;2.90;;;15.00;99.90;;;;;;5030717;28;20479;-72
2023/06/29 01:26:49;;;;;;;3.60;3.13;;;15.00;99.90;;;;;;5030464;28;20481;-73
2023/06/29 01:29:24;;;;;;;4.93;2.80;;;15.00;99.90;;;;;;5030643;28;20465;-72
2023/06/29 01:31:51;;;;;;;3.20;2.93;;;14.90;99.90;;;;;;5031177;28;21029;-73
2023/06/29 01:34:18;;;;;;;3.97;3.20;;;14.90;99.90;;;;;;5030550;28;20456;-72
2023/06/29 01:36:50;;;;;;;2.97;2.77;;;14.90;99.90;;;;;;5030317;28;20484;-73
2023/06/29 01:39:21;;;;;;;4.87;3.30;;;14.90;99.90;;;;;;5030343;28;20465;-73
2023/06/29 01:41:49;;;;;;;3.70;2.87;;;14.80;99.90;;;;;;5030829;28;20461;-73
2023/06/29 01:44:18;;;;;;;3.60;3.23;;;14.80;99.90;;;;;;5030374;28;20460;-73
2023/06/29 01:46:47;;;;;;;2.77;2.57;;;14.80;99.90;;;;;;5030179;28;20516;-73
2023/06/29 01:49:14;;;;;;;3.30;3.00;;;14.80;99.90;;;;;;5030307;28;20460;-73
2023/06/29 01:51:41;;;;;;;3.20;2.80;;;14.70;99.90;;;;;;5045204;28;21017;-73
2023/06/29 01:54:08;;;;;;;4.20;3.30;;;14.70;99.90;;;;;;5049910;28;20463;-73
2023/06/29 01:56:35;;;;;;;3.50;3.00;;;14.70;99.90;;;;;;5048748;28;21028;-72
2023/06/29 01:59:04;;;;;;;3.80;2.67;;;14.70;99.90;;;;;;5050186;28;20467;-73
2023/06/29 02:01:31;;;;;;;5.00;3.30;;;14.70;99.90;;;;;;5050191;28;20499;-73
2023/06/29 02:03:58;;;;;;;3.10;2.80;;;14.70;99.90;;;;;;5050068;28;20463;-73
2023/06/29 02:06:24;;;;;;;3.67;3.27;;;14.70;99.90;;;;;;5049633;28;20463;-73
2023/06/29 02:08:51;;;;;;;4.50;3.43;;;14.70;99.90;;;;;;5050315;28;20466;-73
2023/06/29 02:11:19;;;;;;;3.27;2.97;;;14.60;99.90;;;;;;5050132;28;20487;-72
2023/06/29 02:13:47;;;;;;;3.70;3.40;;;14.60;99.90;;;;;;5051110;28;20558;-73
2023/06/29 02:16:15;;;;;;;3.27;2.90;;;14.60;99.90;;;;;;5049474;28;20459;-73
2023/06/29 02:18:42;;;;;;;3.43;3.13;;;14.60;99.90;;;;;;5050047;28;20479;-73
2023/06/29 02:21:08;;;;;;;3.30;3.00;;;14.60;99.90;;;;;;5049931;28;20451;-72
2023/06/29 02:23:35;;;;;;;3.87;2.83;;;14.50;99.90;;;;;;5049812;28;20464;-73
2023/06/29 02:26:02;;;;;;;3.40;3.10;;;14.50;99.90;;;;;;5049254;28;20459;-73
2023/06/29 02:28:28;;;;;;;3.30;3.00;;;14.50;99.90;;;;;;5049687;28;20479;-74
2023/06/29 02:30:55;;;;;;;3.43;2.97;;;14.50;99.90;;;;;;5049892;28;20479;-72
2023/06/29 02:33:23;;;;;;;5.10;3.23;;;14.40;99.90;;;;;;5049556;28;20470;-73
2023/06/29 02:35:50;;;;;;;3.40;3.10;;;14.40;99.90;;;;;;5049331;28;20463;-73
2023/06/29 02:38:16;;;;;;;3.90;3.50;;;14.40;99.90;;;;;;5049309;28;20510;-73
2023/06/29 02:40:44;;;;;;;3.90;3.60;;;14.30;99.90;;;;;;5049666;28;20459;-73
2023/06/29 02:43:11;;;;;;;4.77;4.37;;;14.30;99.90;;;;;;5049600;28;21002;-73
2023/06/29 02:45:38;;;;;;;5.67;3.10;;;14.30;99.90;;;;;;5049152;28;20456;-73
2023/06/29 02:48:05;;;;;;;3.00;2.70;;;14.30;99.90;;;;;;5049417;28;20506;-73
2023/06/29 02:50:33;;;;;;;3.83;3.53;;;14.30;99.90;;;;;;5049736;28;20470;-73
2023/06/29 02:53:00;;;;;;;3.67;3.37;;;14.30;99.90;;;;;;5049519;28;20511;-73
2023/06/29 02:55:26;;;;;;;3.40;3.10;;;14.30;99.90;;;;;;5048651;28;20463;-72
2023/06/29 02:57:53;;;;;;;6.73;3.20;;;14.20;99.90;;;;;;5049297;28;20486;-73
2023/06/29 03:00:20;;;;;;;4.80;3.40;;;14.20;99.90;;;;;;5049418;28;20491;-73
2023/06/29 03:02:46;;;;;;;4.47;3.43;;;14.20;99.90;;;;;;5049735;28;20455;-74
2023/06/29 03:05:13;;;;;;;2.93;2.73;;;14.20;99.90;;;;;;5048978;28;20833;-74
2023/06/29 03:07:41;;;;;;;3.67;3.37;;;14.20;99.90;;;;;;5044992;28;20869;-74
2023/06/29 03:10:08;;;;;;;3.90;3.60;;;14.10;99.90;;;;;;5033116;28;20490;-73
2023/06/29 03:12:35;;;;;;;3.83;2.80;;;14.10;99.90;;;;;;5033395;28;20483;-73
2023/06/29 03:15:02;;;;;;;4.20;2.77;;;14.10;99.90;;;;;;5032769;28;20467;-73
2023/06/29 03:17:29;;;;;;;3.47;2.93;;;14.10;99.90;;;;;;5033016;28;21021;-74
2023/06/29 03:19:56;;;;;;;3.50;3.20;;;14.10;99.90;;;;;;5033250;28;20471;-72
2023/06/29 03:22:24;;;;;;;3.97;3.67;;;14.10;99.90;;;;;;5031762;28;20464;-74
2023/06/29 03:24:52;;;;;;;3.00;2.80;;;14.00;99.90;;;;;;5032336;28;20459;-73
2023/06/29 03:27:18;;;;;;;3.67;2.90;;;14.10;99.90;;;;;;5032398;28;20491;-73
2023/06/29 03:29:45;;;;;;;3.80;3.40;;;14.00;99.90;;;;;;5038743;28;20459;-73
2023/06/29 03:32:12;;;;;;;3.40;3.10;;;14.00;99.90;;;;;;5052380;28;21205;-73
2023/06/29 03:34:39;;;;;;;3.07;2.73;;;14.00;99.90;;;;;;5255660;22;20474;-71
2023/06/29 03:37:06;;;;;;;3.80;3.50;;;14.00;99.90;;;;;;5053424;28;21012;-73
2023/06/29 03:39:33;;;;;;;3.70;3.40;;;14.00;99.90;;;;;;5072964;28;20463;-73
2023/06/29 03:42:01;;;;;;;3.43;3.13;;;14.00;99.90;;;;;;5073311;28;20996;-73
2023/06/29 03:44:27;;;;;;;4.20;3.30;;;14.00;99.90;;;;;;5073409;28;20463;-70
2023/06/29 03:46:54;;;;;;;3.47;3.17;;;14.00;99.90;;;;;;5065388;28;20487;-71
2023/06/29 03:49:21;;;;;;;3.63;3.23;;;13.90;99.90;;;;;;5059152;28;20467;-72
2023/06/29 03:51:47;;;;;;;3.47;3.17;;;13.90;99.90;;;;;;5072195;28;20466;-70
2023/06/29 03:54:14;;;;;;;3.50;3.20;;;13.90;99.90;;;;;;5071458;28;20458;-71
2023/06/29 03:56:41;;;;;;;3.30;3.00;;;13.90;99.90;;;;;;5070558;28;20469;-72
2023/06/29 03:59:09;;;;;;;3.37;2.97;;;13.90;99.90;;;;;;5056674;28;20458;-71
2023/06/29 04:01:35;;;;;;;4.13;3.53;;;13.90;99.90;;;;;;5055401;28;20462;-72
2023/06/29 04:04:22;;;;;;;4.27;3.87;;;13.90;99.90;;;;;;5102418;22;20865;-92
2023/06/29 04:06:57;;;;;;;3.30;3.00;;;13.90;99.90;;;;;;5043265;28;20448;-91
2023/06/29 04:09:36;;;;;;;4.13;3.40;;;13.90;99.90;;;;;;5064714;28;20525;-91
2023/06/29 04:12:03;;;;;;;2.90;2.70;;;14.00;99.90;;;;;;5060181;28;20573;-93
2023/06/29 04:14:33;;;;;;;4.33;3.60;;;14.00;99.90;;;;;;5068021;28;20536;-92
2023/06/29 04:17:14;;;;;;;5.33;4.10;;;14.00;99.90;;;;;;5075220;28;20462;-92
2023/06/29 04:19:51;;;;;;;3.90;3.30;;;14.00;99.90;;;;;;5063678;28;20459;-92
2023/06/29 04:22:18;;;;;;;3.93;3.63;;;14.00;99.90;;;;;;5076590;28;20827;-92
2023/06/29 04:24:45;;;;;;;3.70;3.40;;;14.10;99.90;;;;;;5072087;28;20514;-91
2023/06/29 04:27:14;;;;;;;4.47;3.20;;;14.10;99.90;;;;;;5055377;28;20456;-92
2023/06/29 04:29:45;;;;;;;3.33;3.03;;;14.10;99.90;;;;;;5056860;28;20459;-93
2023/06/29 04:32:13;;;;;;;3.67;3.33;;;14.20;99.90;;;;;;5055647;28;20590;-93
2023/06/29 04:34:48;;;;;;;5.50;3.60;;;14.20;99.90;;;;;;5056405;28;20561;-92
2023/06/29 04:37:15;;;;;;;4.57;3.30;;;14.30;99.90;;;;;;5056680;28;20451;-92
2023/06/29 04:39:52;;;;;;;3.60;3.30;;;14.30;99.90;;;;;;5057176;28;20451;-92
2023/06/29 04:42:30;;;;;;;4.77;4.17;;;14.30;99.90;;;;;;5058661;28;20447;-93
2023/06/29 04:44:59;;;;;;;5.73;3.63;;;14.30;99.90;;;;;;5067844;28;20459;-94
2023/06/29 04:47:32;;;;;;;3.63;3.10;;;14.40;99.90;;;;;;5068897;28;20783;-92
2023/06/29 04:50:04;;;;;;;3.70;3.40;;;14.40;99.90;;;;;;5057344;28;21215;-93
2023/06/29 04:52:37;;;;;;;3.73;3.37;;;14.60;99.90;;;;;;5063408;28;20502;-92
2023/06/29 04:55:12;;;;;;;3.37;3.17;;;14.60;99.90;;;;;;5056735;28;20503;-93
2023/06/29 04:57:50;;;;;;;7.40;3.67;;;14.60;99.90;;;;;;5069456;28;20459;-94
2023/06/29 05:00:29;;;;;;;4.03;3.60;;;14.70;99.90;;;;;;5060760;28;20835;-93
2023/06/29 05:02:58;;;;;;;4.93;3.70;;;14.70;99.90;;;;;;5056860;28;20456;-93
2023/06/29 05:05:34;;;;;;;3.40;3.10;;;14.80;99.90;;;;;;5056732;28;20521;-93
2023/06/29 05:08:22;;;;;;;3.83;3.53;;;14.90;99.90;;;;;;5056521;28;20467;-93
2023/06/29 05:10:53;;;;;;;4.23;3.83;;;15.00;99.90;;;;;;5056279;28;20459;-92
2023/06/29 05:14:00;;;;;;;3.63;3.33;;;15.10;99.90;;;;;;5055982;28;20851;-93
2023/06/29 05:16:29;;;;;;;4.37;3.37;;;15.20;99.90;;;;;;5055680;28;20549;-92
2023/06/29 05:18:59;;;;;;;4.27;3.87;;;15.30;99.90;;;;;;5055921;28;20451;-94
2023/06/29 05:21:38;;;;;;;4.20;3.90;;;15.40;99.90;;;;;;5059701;28;20479;-93
2023/06/29 05:26:49;;;;;;;4.80;3.90;;;15.60;99.90;;;;;;5058559;28;20532;-93
2023/06/29 05:29:16;;;;;;;3.90;3.60;;;15.70;99.90;;;;;;5059368;28;20464;-93
2023/06/29 05:31:45;;;;;;;4.80;3.97;;;15.80;99.90;;;;;;5058395;28;20535;-93
2023/06/29 05:34:12;;;;;;;5.07;3.43;;;15.90;99.90;;;;;;5058239;28;20554;-93
2023/06/29 05:36:39;;;;;;;4.37;3.97;;;16.00;99.90;;;;;;5058193;28;20477;-93
2023/06/29 05:39:06;;;;;;;4.50;3.40;;;16.10;99.90;;;;;;5059890;28;20463;-93
2023/06/29 05:41:40;;;;;;;3.93;3.57;;;16.20;99.90;;;;;;5060997;28;20467;-93
2023/06/29 05:44:07;;;;;;;4.47;4.07;;;16.30;99.90;;;;;;5060208;28;20537;-93
2023/06/29 05:47:04;;;;;;;3.97;3.57;;;16.40;99.90;;;;;;5060385;28;20464;-94
2023/06/29 05:49:33;;;;;;;4.00;3.60;;;16.60;99.90;;;;;;5060636;28;20991;-93
2023/06/29 05:52:00;;;;;;;3.40;3.10;;;16.70;99.90;;;;;;5061466;28;20471;-94
2023/06/29 05:54:27;;;;;;;3.80;3.47;;;16.80;99.90;;;;;;5063349;28;20486;-94
2023/06/29 05:56:54;;;;;;;4.30;3.10;;;16.90;99.90;;;;;;5066784;28;20456;-94
2023/06/29 05:59:21;;;;;;;4.87;3.53;;;17.00;99.90;;;;;;5075752;28;20579;-95
2023/06/29 06:01:48;;;;;;;3.20;2.87;;;17.20;99.90;;;;;;5076977;28;20494;-94
2023/06/29 06:04:16;;;;;;;3.40;2.70;;;17.30;99.90;;;;;;5057858;22;20501;-70
2023/06/29 06:06:43;;;;;;;3.47;2.87;;;17.40;99.90;;;;;;5009927;28;20544;-70
2023/06/29 06:09:09;;;;;;;4.10;2.90;;;17.60;99.90;;;;;;5010698;28;20461;-69
2023/06/29 06:11:36;;;;;;;3.80;3.13;;;17.60;99.90;;;;;;5010879;28;20457;-69
2023/06/29 06:14:03;;;;;;;4.57;2.67;;;17.70;99.90;;;;;;5010329;28;20490;-69
2023/06/29 06:16:30;;;;;;;2.40;2.20;;;17.80;99.90;;;;;;5009788;28;20912;-69
2023/06/29 06:18:56;;;;;;;4.40;2.70;;;18.00;99.90;;;;;;5010518;28;20458;-70
2023/06/29 06:21:24;;;;;;;4.07;3.20;;;18.10;99.90;;;;;;5010517;28;20463;-70
2023/06/29 06:23:52;;;;;;;2.47;2.27;;;18.20;99.90;;;;;;5010267;28;20487;-69
2023/06/29 06:26:18;;;;;;;2.33;2.00;;;18.30;99.90;;;;;;5009622;28;20465;-69
2023/06/29 06:28:45;;;;;;;3.20;2.70;;;18.50;99.90;;;;;;5010071;28;21025;-70
2023/06/29 06:31:12;;;;;;;2.63;2.43;;;18.50;99.90;;;;;;5010243;28;20468;-69
2023/06/29 06:33:40;;;;;;;2.67;2.47;;;18.60;99.90;;;;;;5010117;28;20573;-69
2023/06/29 06:36:07;;;;;;;2.90;2.27;;;18.70;99.90;;;;;;5010136;28;20520;-70
2023/06/29 06:38:35;;;;;;;2.97;2.70;;;18.80;99.90;;;;;;5010070;28;21005;-70
2023/06/29 06:41:02;;;;;;;3.03;2.73;;;18.90;99.90;;;;;;4987933;28;20476;-70
2023/06/29 06:43:28;;;;;;;2.93;2.63;;;19.00;99.90;;;;;;5010915;28;20463;-69
2023/06/29 06:45:55;;;;;;;2.97;2.67;;;19.10;99.90;;;;;;5012414;28;21174;-70
2023/06/29 06:48:22;;;;;;;3.03;2.77;;;19.20;99.90;;;;;;5012901;28;20482;-70
2023/06/29 06:50:49;;;;;;;3.03;2.73;;;19.20;99.90;;;;;;5012329;28;20491;-69
2023/06/29 06:53:16;;;;;;;2.87;2.40;;;19.40;99.90;;;;;;5012957;28;20480;-70
2023/06/29 06:55:45;;;;;;;2.73;2.53;;;19.40;99.90;;;;;;5011814;28;20548;-70
2023/06/29 06:58:11;;;;;;;3.60;2.23;;;19.50;99.90;;;;;;5013019;28;21004;-70
2023/06/29 07:00:39;;;;;;;3.10;2.23;;;19.60;99.90;;;;;;5004544;28;20551;-69
2023/06/29 07:03:06;;;;;;;3.07;2.70;;;19.70;99.90;;;;;;5012418;28;21029;-70
2023/06/29 07:05:33;;;;;;;4.30;2.03;;;19.70;99.90;;;;;;5011889;28;20458;-69
2023/06/29 07:07:59;;;;;;;2.50;2.30;;;19.80;99.90;;;;;;5012497;28;20556;-70
2023/06/29 07:10:26;;;;;;;4.60;2.50;;;19.90;99.90;;;;;;5012045;28;21014;-69
2023/06/29 07:12:54;;;;;;;2.60;2.40;;;20.10;99.90;;;;;;5012397;28;20485;-69
2023/06/29 07:15:21;;;;;;;9.00;2.63;;;20.20;99.90;;;;;;5011674;28;20525;-70
2023/06/29 07:17:48;;;;;;;2.70;2.30;;;20.20;99.90;;;;;;5011628;28;20485;-69
2023/06/29 07:20:15;;;;;;;3.77;2.97;;;20.30;99.90;;;;;;5012285;28;20893;-69
2023/06/29 07:22:42;;;;;;;2.83;2.20;;;20.40;99.90;;;;;;5012382;28;20453;-69
2023/06/29 07:25:11;;;;;;;2.60;2.40;;;20.50;99.90;;;;;;5012103;28;20527;-70
2023/06/29 07:27:38;;;;;;;4.07;2.40;;;20.60;99.90;;;;;;5011073;28;20566;-70
2023/06/29 07:30:08;;;;;;;3.10;2.50;;;20.80;99.90;;;;;;5011583;28;20889;-70
2023/06/29 07:32:35;;;;;;;3.10;2.40;;;20.90;99.90;;;;;;5009361;28;20853;-69
2023/06/29 07:35:01;;;;;;;2.43;2.23;;;21.00;99.90;;;;;;5012111;28;20468;-69
2023/06/29 07:37:28;;;;;;;3.40;2.50;;;21.20;99.90;;;;;;5011948;28;20514;-71
2023/06/29 07:39:55;;;;;;;4.23;2.90;;;21.30;99.90;;;;;;5011954;28;20485;-70
2023/06/29 07:42:21;;;;;;;2.77;2.47;;;21.50;99.90;;;;;;5012430;28;20477;-70
2023/06/29 07:44:48;;;;;;;3.40;2.33;;;21.50;99.90;;;;;;4992764;28;20468;-69
2023/06/29 07:47:16;;;;;;;4.93;2.30;;;21.60;99.90;;;;;;4991994;28;20497;-69
2023/06/29 07:49:43;;;;;;;2.50;2.30;;;21.60;99.90;;;;;;5010610;28;20959;-69
2023/06/29 07:52:10;;;;;;;4.90;2.30;;;21.60;99.90;;;;;;5013033;28;20556;-70
2023/06/29 07:54:36;;;;;;;2.53;2.20;;;21.60;99.90;;;;;;5012052;28;20826;-70
2023/06/29 07:57:04;;;;;;;2.40;2.20;;;21.70;99.90;;;;;;5012215;28;20840;-70
2023/06/29 07:59:30;;;;;;;4.10;2.80;;;21.80;99.90;;;;;;5012629;28;20467;-70
2023/06/29 08:01:57;;;;;;;3.00;2.50;;;21.90;99.90;;;;;;5012694;28;20467;-70
2023/06/29 08:04:25;;;;;;;2.87;2.40;;;22.00;99.90;;;;;;5012168;28;20474;-69
2023/06/29 08:06:52;;;;;;;2.07;1.87;;;22.20;99.90;;;;;;5011976;28;21324;-70
2023/06/29 08:09:18;;;;;;;2.27;2.07;;;22.20;99.90;;;;;;5012590;28;20464;-70
2023/06/29 08:11:45;;;;;;;2.63;2.40;;;22.30;99.60;;;;;;5012250;28;20469;-70
2023/06/29 08:14:12;;;;;;;3.10;2.00;;;22.30;98.20;;;;;;5012417;28;20486;-70
2023/06/29 08:16:38;;;;;;;3.50;2.90;;;22.30;99.00;;;;;;5011667;28;20875;-70
2023/06/29 08:19:05;;;;;;;1.80;1.70;;;22.50;99.40;;;;;;5012468;28;20463;-70
2023/06/29 08:21:33;;;;;;;2.90;1.90;;;22.60;98.40;;;;;;5012046;28;20468;-69
2023/06/29 08:24:00;;;;;;;2.57;2.17;;;22.70;97.60;;;;;;5012260;28;21055;-69
2023/06/29 08:26:26;;;;;;;2.00;1.90;;;22.80;98.10;;;;;;5011634;28;20474;-70
2023/06/29 08:28:53;;;;;;;2.30;2.10;;;22.90;98.50;;;;;;5012137;28;20463;-69
2023/06/29 08:31:20;;;;;;;2.17;1.97;;;22.80;97.90;;;;;;5012180;28;20848;-69
2023/06/29 08:33:48;;;;;;;4.90;2.10;;;22.70;97.80;;;;;;5011260;28;20485;-69
2023/06/29 08:36:15;;;;;;;2.40;2.20;;;22.70;98.20;;;;;;5011867;28;20468;-70
2023/06/29 08:38:48;;;;;;;2.80;2.40;;;22.60;97.40;;;;;;5012264;28;20489;-69
2023/06/29 08:41:16;;;;;;;1.97;1.80;;;22.60;97.90;;;;;;5012187;28;20525;-69
2023/06/29 08:43:43;;;;;;;2.57;2.37;;;22.60;97.50;;;;;;5011562;28;20456;-70
2023/06/29 08:46:09;;;;;;;3.03;2.33;;;22.50;98.30;;;;;;5011395;28;20469;-69
2023/06/29 08:48:37;;;;;;;2.57;2.20;;;22.50;98.70;;;;;;5011428;28;20494;-69
2023/06/29 08:51:07;;;;;;;2.40;2.20;;;22.40;98.30;;;;;;5011942;28;20584;-69
2023/06/29 08:53:34;;;;;;;2.10;2.00;;;22.40;98.80;;;;;;5010782;28;21247;-69
2023/06/29 08:56:03;;;;;;;2.00;1.90;;;22.50;99.90;;;;;;5011242;28;20954;-69
2023/06/29 08:58:30;;;;;;;2.80;1.97;;;22.50;99.90;;;;;;5011450;28;20883;-69
2023/06/29 09:00:58;;;;;;;3.17;2.40;;;22.60;99.10;;;;;;5011646;28;20471;-70
2023/06/29 09:03:26;;;;;;;2.30;2.10;;;22.70;99.70;;;;;;5011348;28;20471;-69
2023/06/29 09:05:54;;;;;;;3.37;2.10;;;22.90;99.50;;;;;;5010061;28;20484;-69
2023/06/29 09:08:21;;;;;;;2.30;2.10;;;23.10;99.40;;;;;;5011277;28;20526;-69
2023/06/29 09:10:47;;;;;;;2.43;1.67;;;23.30;98.90;;;;;;5011328;28;20461;-69
2023/06/29 09:13:16;;;;;;;2.10;1.90;;;23.40;97.50;;;;;;5011282;28;20490;-69
2023/06/29 09:15:43;;;;;;;2.00;1.90;;;23.50;97.10;;;;;;5010135;28;20469;-69
2023/06/29 09:18:12;;;;;;;2.27;1.87;;;23.60;98.00;;;;;;5011463;28;20484;-69
2023/06/29 09:20:40;;;;;;;2.33;1.93;;;23.80;98.70;;;;;;5010892;28;20471;-70
2023/06/29 09:23:07;;;;;;;2.60;1.60;;;23.90;98.30;;;;;;5011222;28;20463;-70
2023/06/29 09:25:36;;;;;;;3.90;2.43;;;24.00;98.00;;;;;;5010738;28;20472;-69
2023/06/29 09:28:04;;;;;;;1.80;1.70;;;24.00;97.40;;;;;;5011104;28;20485;-69
2023/06/29 09:30:38;;;;;;;3.10;1.97;;;24.00;97.80;;;;;;5010857;28;20464;-69
2023/06/29 09:33:07;;;;;;;2.10;1.90;;;23.90;98.10;;;;;;5007483;28;21073;-69
2023/06/29 09:35:35;;;;;;;1.80;1.70;;;23.80;97.80;;;;;;4990943;28;20466;-69
2023/06/29 09:38:02;;;;;;;2.10;1.90;;;23.90;98.20;;;;;;4991772;28;20670;-69
2023/06/29 09:40:29;;;;;;;3.37;2.20;;;24.10;97.30;;;;;;4991609;28;20494;-69
2023/06/29 09:42:56;;;;;;;3.50;2.10;;;24.20;98.50;;;;;;4991812;28;20471;-70
2023/06/29 09:45:29;;;;;;;2.40;2.10;;;24.40;97.10;;;;;;4991183;28;20462;-69
2023/06/29 09:47:57;;;;;;;1.80;1.70;;;24.50;95.90;;;;;;4991276;28;20876;-69
2023/06/29 09:50:24;;;;;;;3.43;2.30;;;24.60;95.40;;;;;;4991581;28;20509;-69
2023/06/29 09:52:52;;;;;;;2.03;1.83;;;24.60;95.10;;;;;;4991239;28;21294;-69
2023/06/29 09:55:19;;;;;;;2.90;2.10;;;24.40;95.50;;;;;;4991394;28;20950;-70
2023/06/29 09:57:48;;;;;;;2.30;2.10;;;24.40;95.80;;;;;;4990823;28;20489;-69
2023/06/29 10:00:15;;;;;;;2.57;1.90;;;24.40;96.40;;;;;;4991506;28;20458;-70
2023/06/29 10:02:42;;;;;;;2.10;1.90;;;24.50;97.10;;;;;;4991037;28;20886;-69
2023/06/29 10:05:10;;;;;;;2.47;2.20;;;24.50;97.90;;;;;;5088360;22;20521;-71
2023/06/29 10:07:38;;;;;;;2.40;2.20;;;24.60;97.80;;;;;;5049895;28;20480;-73
2023/06/29 10:10:08;;;;;;;2.03;1.93;;;24.60;97.60;;;;;;5050413;28;20455;-73
2023/06/29 10:12:35;;;;;;;1.73;1.60;;;24.70;97.70;;;;;;5050242;28;20466;-73
2023/06/29 10:15:08;;;;;;;2.90;2.20;;;24.70;97.90;;;;;;5049849;28;20921;-73
2023/06/29 10:17:42;;;;;;;4.00;2.10;;;24.90;99.50;;;;;;5067884;28;20535;-73
2023/06/29 10:20:12;;;;;;;2.53;1.93;;;25.10;98.10;;;;;;5070211;28;20474;-73
2023/06/29 10:22:40;;;;;;;2.00;1.70;;;25.30;97.30;;;;;;5070078;28;20460;-73
2023/06/29 10:25:12;;;;;;;2.10;1.90;;;25.50;96.20;;;;;;5069800;28;20461;-72
2023/06/29 10:27:40;;;;;;;2.53;1.67;;;25.60;94.30;;;;;;5069912;28;20477;-73
2023/06/29 10:30:07;;;;;;;2.43;2.10;;;25.60;96.90;;;;;;5069443;28;20472;-73
2023/06/29 10:32:35;;;;;;;3.13;2.23;;;25.60;97.10;;;;;;5070253;28;20482;-72
2023/06/29 10:35:10;;;;;;;2.27;2.07;;;25.70;96.60;;;;;;5069757;28;20486;-73
2023/06/29 10:37:38;;;;;;;2.33;2.13;;;25.80;97.00;;;;;;5069747;28;20486;-73
2023/06/29 10:40:14;;;;;;;2.37;2.17;;;25.80;94.30;;;;;;5069901;28;20466;-73
2023/06/29 10:42:52;;;;;;;5.53;2.57;;;25.60;94.50;;;;;;5070169;28;20464;-73
2023/06/29 10:45:34;;;;;;;4.30;2.20;;;25.70;93.60;;;;;;5069916;28;20458;-73
2023/06/29 10:48:09;;;;;;;3.40;2.30;;;25.70;93.80;;;;;;5069525;28;20496;-73
2023/06/29 10:50:41;;;;;;;2.70;2.43;;;25.80;94.60;;;;;;5070232;28;20461;-73
2023/06/29 10:53:11;;;;;;;2.20;2.00;;;25.80;93.80;;;;;;5070482;28;20466;-73
2023/06/29 10:55:46;;;;;;;2.67;2.47;;;25.90;97.00;;;;;;5068372;28;20971;-73
2023/06/29 10:58:21;;;;;;;3.13;2.40;;;26.10;95.10;;;;;;5049616;28;20478;-72
2023/06/29 11:00:48;;;;;;;5.03;2.87;;;26.30;96.90;;;;;;5049627;28;20475;-73
2023/06/29 11:03:16;;;;;;;3.07;2.67;;;26.50;96.70;;;;;;5051335;28;20455;-71
2023/06/29 11:05:48;;;;;;;2.97;2.70;;;26.60;94.70;;;;;;5051627;28;20842;-70
2023/06/29 11:08:15;;;;;;;2.60;2.40;;;26.80;92.70;;;;;;5064040;22;21039;-88
2023/06/29 11:10:42;;;;;;;2.60;2.40;;;26.60;93.00;;;;;;5053442;28;20960;-88
2023/06/29 11:13:10;;;;;;;2.43;2.23;;;26.50;92.90;;;;;;5053819;28;20983;-87
2023/06/29 11:15:38;;;;;;;3.37;2.50;;;26.50;95.80;;;;;;5055305;28;20925;-86
2023/06/29 11:18:06;;;;;;;2.73;2.53;;;26.60;95.30;;;;;;5060774;28;20485;-89
2023/06/29 11:20:34;;;;;;;3.70;2.83;;;26.70;95.50;;;;;;5070271;28;20458;-92
2023/06/29 11:23:03;;;;;;;3.77;2.97;;;26.90;93.80;;;;;;5071221;28;20473;-91
2023/06/29 11:25:33;;;;;;;3.23;2.87;;;27.10;93.60;;;;;;5067121;28;20553;-92
2023/06/29 11:28:00;;;;;;;3.40;2.83;;;27.20;95.50;;;;;;5070355;28;20483;-92
2023/06/29 11:30:32;;;;;;;2.67;2.47;;;27.40;95.30;;;;;;5071244;28;20473;-90
2023/06/29 11:33:03;;;;;;;2.63;2.23;;;27.60;94.80;;;;;;5048536;28;20460;-92
2023/06/29 11:35:31;;;;;;;2.47;2.10;;;27.70;94.40;;;;;;5072348;28;20475;-91
2023/06/29 11:38:00;;;;;;;2.57;2.37;;;27.90;96.80;;;;;;5069790;28;20491;-91
2023/06/29 11:40:29;;;;;;;2.80;2.60;;;28.00;94.40;;;;;;5070694;28;20550;-91
2023/06/29 11:42:56;;;;;;;4.60;3.13;;;28.20;93.20;;;;;;5062055;28;20882;-91
2023/06/29 11:45:23;;;;;;;3.90;2.83;;;28.10;92.80;;;;;;5070928;28;20972;-90
2023/06/29 11:47:59;;;;;;;3.40;2.63;;;28.00;91.90;;;;;;5069596;28;20487;-91
2023/06/29 11:50:29;;;;;;;3.20;2.93;;;27.90;94.90;;;;;;5071470;28;20465;-91
2023/06/29 11:52:57;;;;;;;3.53;3.07;;;27.80;95.80;;;;;;5049422;28;20466;-92
2023/06/29 11:55:25;;;;;;;3.90;3.33;;;27.70;95.70;;;;;;5065283;28;20529;-92
2023/06/29 11:57:55;;;;;;;3.67;3.03;;;27.80;96.00;;;;;;5058920;28;20519;-90
2023/06/29 12:00:30;;;;;;;4.33;3.30;;;27.80;95.30;;;;;;5057970;28;20467;-91
2023/06/29 12:02:58;;;;;;;3.83;3.10;;;27.70;95.40;;;;;;5057396;28;20591;-91
2023/06/29 12:05:29;;;;;;;3.20;2.90;;;27.70;95.20;;;;;;5057481;28;20459;-91
2023/06/29 12:07:57;;;;;;;3.37;2.97;;;27.90;93.80;;;;;;5057630;28;20492;-91
2023/06/29 12:10:25;;;;;;;4.53;3.07;;;28.10;94.40;;;;;;5057721;28;20456;-92
2023/06/29 12:12:55;;;;;;;3.53;3.23;;;28.20;95.00;;;;;;5057979;28;20963;-91
2023/06/29 12:15:27;;;;;;;3.40;3.10;;;28.30;94.10;;;;;;5057527;28;20480;-91
2023/06/29 12:18:08;;;;;;;3.57;3.07;;;28.40;92.50;;;;;;5057438;28;20478;-91
2023/06/29 12:20:42;;;;;;;3.97;3.57;;;28.40;91.80;;;;;;5058209;28;20455;-91
2023/06/29 12:23:11;;;;;;;4.07;3.53;;;28.20;91.50;;;;;;5057733;28;21026;-91
2023/06/29 12:25:47;;;;;;;3.97;3.37;;;28.00;91.50;;;;;;5057756;28;20558;-90
2023/06/29 12:28:19;;;;;;;3.57;3.10;;;27.70;91.80;;;;;;5057912;28;20483;-91
2023/06/29 12:30:49;;;;;;;3.93;3.03;;;27.50;91.80;;;;;;5057248;28;20976;-91
2023/06/29 12:33:16;;;;;;;3.47;3.03;;;27.40;93.40;;;;;;5056999;28;20460;-91
2023/06/29 12:35:43;;;;;;;4.70;3.57;;;27.20;94.00;;;;;;5057224;28;20491;-92
2023/06/29 12:38:11;;;;;;;3.50;2.93;;;27.10;93.10;;;;;;5056857;28;20506;-92
2023/06/29 12:40:38;;;;;;;4.40;3.60;;;27.10;93.70;;;;;;5057923;28;20506;-91
2023/06/29 12:43:09;;;;;;;6.93;4.63;;;27.10;92.70;;;;;;5056918;28;20471;-91
2023/06/29 12:45:39;;;;;;;4.63;3.87;;;27.20;94.30;;;;;;5057655;28;20494;-91
2023/06/29 12:48:06;;;;;;;4.60;3.60;;;27.30;94.90;;;;;;5058191;28;20483;-91
2023/06/29 12:50:33;;;;;;;4.30;3.00;;;27.30;94.20;;;;;;5057918;28;20455;-92
2023/06/29 12:53:00;;;;;;;4.67;3.07;;;27.30;94.60;;;;;;5058147;28;20967;-93
2023/06/29 12:55:27;;;;;;;6.90;3.23;;;27.10;95.40;;;;;;5057106;28;20586;-93
2023/06/29 12:57:54;;;;;;;2.53;2.20;;;26.90;95.70;;;;;;5057484;28;20511;-92